createdAt,value
2022-10-14T00:00:26.928Z,100272.95
2022-10-14T00:05:50.114Z,100270.48
2022-10-14T00:10:53.210Z,100264.92
2022-10-14T00:15:56.623Z,100262.90
2022-10-14T00:21:02.073Z,100258.55
2022-10-14T00:26:05.819Z,100255.35
2022-10-14T00:31:09.012Z,100253.33
2022-10-14T00:36:14.886Z,100249.18
2022-10-14T00:41:22.802Z,100242.38
2022-10-14T00:46:28.572Z,100236.95
2022-10-14T00:51:32.600Z,100232.38
2022-10-14T00:56:37.036Z,100227.88
2022-10-14T01:01:40.758Z,100219.14
2022-10-14T01:07:02.294Z,100220.81
2022-10-14T01:12:59.671Z,100216.00
2022-10-14T01:18:43.636Z,100214.98
2022-10-14T01:24:05.894Z,100208.11
2022-10-14T01:29:27.364Z,100203.50
2022-10-14T01:34:43.951Z,100201.95
2022-10-14T01:39:59.448Z,100198.05
2022-10-14T01:45:31.125Z,100195.11
2022-10-14T01:50:36.804Z,100189.16
2022-10-14T01:55:45.834Z,100184.80
2022-10-14T02:00:49.144Z,100183.75
2022-10-14T02:06:01.978Z,100185.68
2022-10-14T02:11:11.536Z,100175.83
2022-10-14T02:16:39.217Z,100168.60
2022-10-14T02:21:48.674Z,100175.88
2022-10-14T02:26:55.979Z,100173.85
2022-10-14T02:32:00.310Z,100174.20
2022-10-14T02:37:03.829Z,100165.21
2022-10-14T02:42:07.344Z,100170.31
2022-10-14T02:47:10.551Z,100163.64
2022-10-14T02:52:13.759Z,100162.29
2022-10-14T02:57:16.967Z,100157.04
2022-10-14T03:02:20.299Z,100153.02
2022-10-14T03:07:24.203Z,100147.78
2022-10-14T03:12:27.412Z,100150.63
2022-10-14T03:17:30.933Z,100152.34
2022-10-14T03:22:34.137Z,100147.82
2022-10-14T03:27:37.752Z,100148.83
2022-10-14T03:32:41.063Z,100144.44
2022-10-14T03:37:44.277Z,100143.49
2022-10-14T03:42:47.481Z,100140.29
2022-10-14T03:47:50.895Z,100137.02
2022-10-14T03:52:55.774Z,100131.73
2022-10-14T03:57:59.565Z,100132.02
2022-10-14T04:03:02.774Z,100131.55
2022-10-14T04:08:06.594Z,100135.52
2022-10-14T04:13:09.905Z,100135.45
2022-10-14T04:18:13.215Z,100137.05
2022-10-14T04:23:16.426Z,100132.54
2022-10-14T04:28:19.606Z,100130.77
2022-10-14T04:33:23.967Z,100117.37
2022-10-14T04:38:27.791Z,100103.06
2022-10-14T04:43:31.001Z,100098.80
2022-10-14T04:48:34.310Z,100093.56
2022-10-14T04:53:37.521Z,100089.89
2022-10-14T04:58:40.725Z,100088.23
2022-10-14T05:03:43.935Z,100075.15
2022-10-14T05:08:47.180Z,100073.87
2022-10-14T05:13:50.456Z,100077.77
2022-10-14T05:18:53.869Z,100077.58
2022-10-14T05:23:57.178Z,100076.96
2022-10-14T05:29:00.551Z,100077.27
2022-10-14T05:34:04.005Z,100074.48
2022-10-14T05:39:08.982Z,100062.98
2022-10-14T05:44:12.673Z,100057.17
2022-10-14T05:49:15.983Z,100063.71
2022-10-14T05:54:19.295Z,100065.30
2022-10-14T05:59:22.709Z,100071.91
2022-10-14T06:04:26.224Z,100076.38
2022-10-14T06:09:31.351Z,100076.42
2022-10-14T06:14:34.686Z,100071.97
2022-10-14T06:19:37.896Z,100069.06
2022-10-14T06:24:41.106Z,100068.09
2022-10-14T06:29:44.415Z,100075.86
2022-10-14T06:34:47.725Z,100080.62
2022-10-14T06:39:51.137Z,100081.70
2022-10-14T06:44:56.542Z,100084.03
2022-10-14T06:50:00.523Z,100083.96
2022-10-14T06:55:04.353Z,100077.20
2022-10-14T07:00:08.899Z,100088.55
2022-10-14T07:05:13.734Z,100087.98
2022-10-14T07:10:17.146Z,100082.69
2022-10-14T07:15:23.789Z,100081.73
2022-10-14T07:20:27.086Z,100082.03
2022-10-14T07:25:30.358Z,100087.59
2022-10-14T07:30:33.877Z,100089.94
2022-10-14T07:35:38.759Z,100091.55
2022-10-14T07:40:42.136Z,100090.12
2022-10-14T07:45:48.102Z,100089.66
2022-10-14T07:50:51.519Z,100091.05
2022-10-14T07:55:58.862Z,100092.11
2022-10-14T08:01:02.029Z,100086.80
2022-10-14T08:06:06.060Z,100089.23
2022-10-14T08:11:18.278Z,100087.36
2022-10-14T08:16:24.556Z,100084.60
2022-10-14T08:21:28.993Z,100090.76
2022-10-14T08:26:35.991Z,100095.91
2022-10-14T08:31:39.419Z,100091.11
2022-10-14T08:36:42.611Z,100090.33
2022-10-14T08:42:10.093Z,100088.44
2022-10-14T08:47:20.673Z,100089.39
2022-10-14T08:52:37.876Z,100093.23
2022-10-14T08:57:52.177Z,100089.58
2022-10-14T09:02:55.621Z,100086.92
2022-10-14T09:07:59.310Z,100082.71
2022-10-14T09:13:18.651Z,100085.43
2022-10-14T09:18:40.241Z,100087.58
2022-10-14T09:23:43.344Z,100087.86
2022-10-14T09:28:49.187Z,100090.63
2022-10-14T09:33:52.421Z,100078.27
2022-10-14T09:38:56.527Z,100076.59
2022-10-14T09:44:15.221Z,100075.59
2022-10-14T09:49:48.329Z,100077.33
2022-10-14T09:54:57.476Z,100070.18
2022-10-14T10:00:04.323Z,100063.23
2022-10-14T10:05:35.342Z,100065.63
2022-10-14T10:10:39.059Z,100062.86
2022-10-14T10:15:57.313Z,100059.35
2022-10-14T10:21:14.654Z,100056.43
2022-10-14T10:26:26.094Z,100055.73
2022-10-14T10:31:52.609Z,100051.05
2022-10-14T10:37:37.599Z,100056.20
2022-10-14T10:42:51.863Z,100063.73
2022-10-14T10:48:01.525Z,100062.20
2022-10-14T10:53:23.267Z,100061.11
2022-10-14T10:58:29.450Z,100053.56
2022-10-14T11:03:55.394Z,100049.27
2022-10-14T11:09:24.714Z,100048.19
2022-10-14T11:14:41.025Z,100044.79
2022-10-14T11:19:59.180Z,100046.27
2022-10-14T11:25:28.603Z,100045.55
2022-10-14T11:30:46.560Z,100044.48
2022-10-14T11:36:10.861Z,100029.45
2022-10-14T11:41:20.826Z,100024.84
2022-10-14T11:46:29.156Z,100020.10
2022-10-14T11:51:38.815Z,100021.80
2022-10-14T11:57:18.382Z,100020.23
2022-10-14T12:02:49.714Z,100018.92
2022-10-14T12:08:14.867Z,100014.02
2022-10-14T12:13:27.102Z,100015.58
2022-10-14T12:18:33.272Z,100010.25
2022-10-14T12:23:57.163Z,100007.88
2022-10-14T12:29:03.787Z,100006.07
2022-10-14T12:34:17.091Z,100011.91
2022-10-14T12:39:20.196Z,100004.02
2022-10-14T12:44:27.911Z,100008.73
2022-10-14T12:49:35.730Z,100004.87
2022-10-14T12:54:48.407Z,100005.70
2022-10-14T12:59:53.067Z,99997.85
2022-10-14T13:04:57.237Z,99992.67
2022-10-14T13:10:26.255Z,99994.31
2022-10-14T13:15:36.827Z,99988.72
2022-10-14T13:20:45.870Z,99986.52
2022-10-14T13:25:52.561Z,99985.81
2022-10-14T13:31:26.504Z,99985.41
2022-10-14T13:36:39.528Z,99987.88
2022-10-14T13:41:45.512Z,99986.45
2022-10-14T13:46:50.150Z,99987.16
2022-10-14T13:51:56.833Z,99984.80
2022-10-14T13:57:42.774Z,99983.79
2022-10-14T14:02:35.096Z,99987.85
2022-10-14T14:08:14.126Z,99988.36
2022-10-14T14:13:04.597Z,99989.67
2022-10-14T14:18:48.883Z,99990.50
2022-10-14T14:24:02.607Z,99988.20
2022-10-14T14:29:12.239Z,99984.39
2022-10-14T14:34:21.554Z,99985.23
2022-10-14T14:39:31.048Z,99978.23
2022-10-14T14:44:34.869Z,99981.83
2022-10-14T14:49:38.803Z,99974.10
2022-10-14T14:54:46.817Z,99973.50
2022-10-14T15:00:19.618Z,99967.73
2022-10-14T15:05:23.337Z,99966.76
2022-10-14T15:10:31.685Z,99966.66
2022-10-14T15:15:35.189Z,99965.53
2022-10-14T15:20:38.801Z,99965.02
2022-10-14T15:25:42.013Z,99961.38
2022-10-14T15:30:45.116Z,99959.58
2022-10-14T15:36:01.997Z,99955.94
2022-10-14T15:41:05.663Z,99950.62
2022-10-14T15:46:31.407Z,99948.37
2022-10-14T15:51:34.506Z,99945.45
2022-10-14T15:56:39.454Z,99949.20
2022-10-14T16:01:45.301Z,99948.27
2022-10-14T16:06:49.967Z,99941.27
2022-10-14T16:11:57.568Z,99938.10
2022-10-14T16:17:03.248Z,99941.30
2022-10-14T16:22:06.454Z,99944.39
2022-10-14T16:27:09.664Z,99943.15
2022-10-14T16:32:13.587Z,99937.36
2022-10-14T16:37:17.106Z,99939.96
2022-10-14T16:42:20.315Z,99942.20
2022-10-14T16:47:24.347Z,99931.68
2022-10-14T16:52:28.060Z,99930.66
2022-10-14T16:57:31.166Z,99933.23
2022-10-14T17:02:34.332Z,99935.05
2022-10-14T17:07:37.481Z,99937.07
2022-10-14T17:12:41.302Z,99936.52
2022-10-14T17:17:44.919Z,99935.48
2022-10-14T17:22:50.083Z,99936.54
2022-10-14T17:27:53.439Z,99929.07
2022-10-14T17:32:56.699Z,99932.66
2022-10-14T17:38:02.879Z,99931.71
2022-10-14T17:43:06.183Z,99932.05
2022-10-14T17:48:09.292Z,99931.62
2022-10-14T17:53:13.010Z,99926.02
2022-10-14T17:58:16.629Z,99922.98
2022-10-14T18:03:19.837Z,99919.13
2022-10-14T18:08:24.175Z,99913.39
2022-10-14T18:13:27.398Z,99910.19
2022-10-14T18:18:31.408Z,99912.48
2022-10-14T18:23:38.986Z,99914.13
2022-10-14T18:28:45.454Z,99903.34
2022-10-14T18:33:49.841Z,99899.80
2022-10-14T18:38:55.210Z,99893.19
2022-10-14T18:43:59.423Z,99894.23
2022-10-14T18:49:02.946Z,99896.73
2022-10-14T18:54:13.427Z,99901.70
2022-10-14T18:59:20.045Z,99905.67
2022-10-14T19:04:27.136Z,99903.98
2022-10-14T19:09:33.089Z,99906.52
2022-10-14T19:14:37.038Z,99899.04
2022-10-14T19:19:40.424Z,99899.34
2022-10-14T19:24:43.632Z,99896.56
2022-10-14T19:29:46.756Z,99897.05
2022-10-14T19:34:50.050Z,99894.08
2022-10-14T19:39:53.362Z,99891.55
2022-10-14T19:44:56.475Z,99885.61
2022-10-14T19:49:59.680Z,99879.76
2022-10-14T19:55:02.986Z,99875.77
2022-10-14T20:00:07.115Z,99874.46
2022-10-14T20:05:10.323Z,99874.05
2022-10-14T20:10:14.145Z,99872.56
2022-10-14T20:15:17.562Z,99869.39
2022-10-14T20:20:20.870Z,99872.77
2022-10-14T20:25:24.081Z,99871.24
2022-10-14T20:30:27.228Z,99873.55
2022-10-14T20:35:30.905Z,99874.21
2022-10-14T20:40:35.950Z,99871.49
2022-10-14T20:45:39.181Z,99870.66
2022-10-14T20:50:43.294Z,99868.99
2022-10-14T20:55:46.467Z,99865.34
2022-10-14T21:00:49.731Z,99861.40
2022-10-14T21:05:52.927Z,99856.96
2022-10-14T21:11:01.048Z,99855.92
2022-10-14T21:16:20.741Z,99851.16
2022-10-14T21:21:25.483Z,99850.08
2022-10-14T21:26:30.238Z,99844.64
2022-10-14T21:31:33.745Z,99841.41
2022-10-14T21:36:39.111Z,99836.27
2022-10-14T21:41:42.925Z,99827.45
2022-10-14T21:47:19.207Z,99827.83
2022-10-14T21:52:23.340Z,99834.19
2022-10-14T21:57:26.861Z,99830.04
2022-10-14T22:02:30.165Z,99831.72
2022-10-14T22:07:33.372Z,99826.80
2022-10-14T22:12:36.584Z,99826.61
2022-10-14T22:17:39.792Z,99829.73
2022-10-14T22:22:43.204Z,99823.52
2022-10-14T22:27:46.512Z,99821.73
2022-10-14T22:32:50.028Z,99821.57
2022-10-14T22:37:53.647Z,99821.95
2022-10-14T22:42:56.855Z,99824.92
2022-10-14T22:48:00.269Z,99823.06
2022-10-14T22:53:03.584Z,99822.55
2022-10-14T22:58:06.687Z,99823.05
2022-10-14T23:03:10.198Z,99824.40
2022-10-14T23:08:15.086Z,99819.09
2022-10-14T23:13:18.360Z,99815.91
2022-10-14T23:23:39.112Z,99813.40
2022-10-14T23:28:42.621Z,99804.42
2022-10-14T23:33:46.654Z,99805.95
2022-10-14T23:38:52.732Z,99804.34
2022-10-14T23:43:57.075Z,99803.99
2022-10-14T23:49:07.473Z,99796.33
2022-10-14T23:54:17.612Z,99789.19
2022-10-14T23:59:20.923Z,99793.27
